Flight Track Log - Related Links

Times and Time Zones

All times are in EDT time to prevent confusion due to time zone crossing. See the XOJ549 flight status page for this flight to view local times or setup timezone preferences in your user account.

Time Position Orientation Groundspeed Altitude Reporting Facility
EDT Latitude Longitude Course Direction KTS MPH feet Rate Location/Type
Sun 09:39:00 AM 42.1333 -87.9000 22° Northeast 171 197 2,400  Level Chicago TRACON
Sun 09:39:54 AM 42.1800 -87.8750 22° Northeast 208 239 4,500 1,930 Climbing Chicago Center
Sun 09:40:55 AM 42.1853 -87.8061 84° East 230 265 6,100 2,927 Climbing Chicago Center
Sun 09:41:57 AM 42.1114 -87.7950 174° South 264 304 10,500 4,244 Climbing Chicago Center
Sun 09:42:58 AM 42.0300 -87.7925 179° South 287 330 14,800 2,195 Climbing Chicago Center
Sun 09:44:00 AM 41.9314 -87.7861 177° South 348 400 15,000 532 Climbing Chicago Center
Sun 09:45:02 AM 41.8178 -87.7758 176° South 337 388 15,900 2,390 Climbing Chicago Center
Sun 09:46:03 AM 41.7142 -87.7617 174° South 367 422 19,900 3,317 Climbing Chicago Center
Sun 09:47:05 AM 41.6047 -87.7481 175° South 387 445 22,700 2,293 Climbing Chicago Center
Sun 09:48:06 AM 41.4911 -87.7328 174° South 404 465 24,600 2,439 Climbing Chicago Center
Sun 09:49:08 AM 41.3792 -87.7225 176° South 401 461 27,700 2,129 Climbing Chicago Center
Sun 09:50:10 AM 41.2614 -87.7256 181° South 416 479 29,000 634 Climbing Chicago Center
Sun 09:51:11 AM 41.1406 -87.7175 177° South 430 495 29,000  Level Chicago Center
Sun 09:52:13 AM 41.0219 -87.7008 174° South 429 494 29,000  Level Chicago Center
Sun 09:53:15 AM 40.9053 -87.6847 174° South 424 488 29,000  Level Chicago Center
Sun 09:54:16 AM 40.7703 -87.6475 168° South 416 479 29,000  Level Chicago Center
Sun 09:55:18 AM 40.6589 -87.6108 166° South 413 475 29,000  Level Chicago Center
Sun 09:56:20 AM 40.5467 -87.5761 167° South 415 478 29,000  Level Chicago Center
Sun 09:57:21 AM 40.4364 -87.5403 166° South 412 474 29,000  Level Chicago Center
Sun 09:58:23 AM 40.3250 -87.5067 167° South 412 474 29,000  Level Chicago Center
Sun 09:59:24 AM 40.2139 -87.4717 166° South 412 474 29,000  Level Chicago Center
Sun 10:00:26 AM 40.0914 -87.4342 167° South 409 471 29,000  Level Chicago Center
Sun 10:01:09 AM 40.0242 -87.4133 167° South 405 466 29,000  Level Indianapolis Center
Sun 10:02:11 AM 39.8906 -87.3733 167° South 411 473 29,000 -339 Level Indianapolis Center
Sun 10:03:13 AM 39.7828 -87.3392 166° South 405 466 28,300 -1,403 Descending Indianapolis Center
Sun 10:04:15 AM 39.6767 -87.3072 167° South 399 459 26,100 -2,129 Descending Indianapolis Center
Sun 10:05:17 AM 39.5725 -87.2742 166° South 391 450 23,900 -2,081 Descending Indianapolis Center
Sun 10:06:19 AM 39.4742 -87.2283 160° South 377 434 21,800 -1,403 Descending Indianapolis Center
Sun 10:07:21 AM 39.3928 -87.1297 137° Southeast 339 390 21,000 -387 Descending Indianapolis Center
Sun 10:08:23 AM 39.3247 -87.0469 137° Southeast 337 388 21,000  Level Indianapolis Center
Sun 10:09:25 AM 39.2544 -86.9597 136° Southeast 350 403 21,000 -144 Level Indianapolis Center
Sun 10:10:28 AM 39.1839 -86.8739 137° Southeast 351 404 20,700 -387 Descending Indianapolis Center
Sun 10:11:29 AM 39.1128 -86.7869 136° Southeast 328 377 20,200 -537 Descending Indianapolis Center
Sun 10:12:31 AM 39.0456 -86.7036 136° Southeast 330 380 19,600 -1,065 Descending Indianapolis Center
Sun 10:13:33 AM 38.9767 -86.6208 137° Southeast 335 386 18,000 -1,645 Descending Indianapolis Center
Sun 10:14:35 AM 38.9106 -86.5397 136° Southeast 316 364 16,200 -1,597 Descending Indianapolis Center
Sun 10:15:37 AM 38.8522 -86.4686 136° Southeast 308 354 14,700 -1,500 Descending Indianapolis Center
Sun 10:16:39 AM 38.7903 -86.3953 137° Southeast 303 349 13,100 -1,694 Descending Indianapolis Center
Sun 10:17:41 AM 38.7175 -86.3069 137° Southeast 300 345 11,200 -1,536 Descending Indianapolis Center
Sun 10:18:44 AM 38.6461 -86.2814 164° South 279 321 9,900 -1,296 Descending Indianapolis Center
Sun 10:19:46 AM 38.5742 -86.2583 166° South 265 305 8,500 -1,403 Descending Indianapolis Center
Sun 10:20:48 AM 38.4994 -86.2347 166° South 271 312 7,000 -1,403 Descending Indianapolis Center
Sun 10:21:50 AM 38.4308 -86.2067 162° South 261 300 5,600 -1,161 Descending Indianapolis Center
Sun 10:22:52 AM 38.3803 -86.1636 146° Southeast 223 257 4,600 -774 Descending Indianapolis Center
Sun 10:23:54 AM 38.3478 -86.1044 125° Southeast 209 241 4,000 -339 Descending Indianapolis Center
Sun 10:24:56 AM 38.3528 -86.0286 85° East 200 230 3,900 -387 Descending Indianapolis Center
Sun 10:25:58 AM 38.3908 -85.9811 44° Northeast 196 226 3,200 -435 Descending Indianapolis Center
Sun 10:27:00 AM 38.3933 -85.9228 87° East 178 205 3,000 -97 Descending Indianapolis Center
Sun 10:28:02 AM 38.3833 -85.8583 101° East 181 208 3,000  Level Indianapolis Center
Sun 10:29:04 AM 38.3547 -85.8139 129° Southeast 179 206 3,000 48 Level Indianapolis Center
Sun 10:30:06 AM 38.3153 -85.7894 154° Southeast 165 190 3,100 -290 Climbing Indianapolis Center
Sun 10:31:08 AM 38.2736 -85.7764 166° South 159 183 2,400 -673 Descending Indianapolis Center
Sun 10:33:22 AM 38.2000 -85.7500 164° South 113 130 900 -672 Descending Louisville TRACON
Sun 10:35:00 AM 38.1741 -85.7365 159° South  Level Estimated
Sun 10:42:00 AM 38.1741 -85.7365 159° South  Level Estimated

Login

Don't have an account? Register now (free) for customized features, flight alerts, and more!